עמוד ראשי
METAR-TAF:

METAR-TAF

שדות תעופה :

דקר, סנגל

קו רוחב: 14-44N, קו אורך: 017-30W, גובה: 27מטר

תצפית מזג אוויר נוכחית

הדו"ח נערך לפני 51דקות, בשעה 21:00 UTC
רוח 6קשר מכיוון מערב/צפון-מערב, משתנה בין מערב/דרום-מערב ו צפון-מערב
טמפרטורת 26 צלסיוס
לחות 84%
לחץ 1010 hPa
ראות 10 קילומטר או יותר
עננים בינוניים בגובה 1000רגל

METAR: GOOY 232100Z 30006KT 240V320 9999 BKN010 26/23 Q1010

זמן: 21:51 (21:51 UTC)

תחזית

הדו"ח נערך לפני 4 שעות ו 51דקות, בשעה 17:00 UTC
תחזית בתוקף מ 23 ב 18 UTC עד 24 ב 24 UTC
רוח 7קשר מכיוון מערב
ראות 10 קילומטר או יותר
עננים פזורים בגובה 1300רגל

TAF: GOOY 231700Z 2318/2424 28007KT 9999 SCT013

תצפיות ותחזיות מזג אוויר לגבי יותר מ- 4,000 שדות תעופה ברחבי העולם. דוחות METAR ו- TAF.

התחנות הזמינות מסומנות בנקודות צהובות ואדומות על גבי המפה.

העבר את העכבר לנקודה הצבעונית על מנת לראות את שם התחנה.

לאחר מכן, לחץ כדי לראות את תוכן ואת תחזיות מזג האוויר.

כדי לשנות את המפה: לחץ על הכפתורים הירוקים עם הפלוס השחור כדי להתקרב; על הכפתור הירוק עם המקף כדי להתרחק; או בחיצים הירוקים למפות סמוכות.


METAR-TAF: